Darstellungsparameter: Aktuell verwendete Einstellungen:
Skalierung der Graphiken ... ?
xyx+y,   Skalierungsfaktor:      Skalierung: Modus: x, Faktor: 1
Darstellungszeitraum ... ?
Vom - - bis: - -   Zeitraum: 20.05.2022 - 20.05.2022
Min/Max/Avg-Anzeige ... ?
Zeige MMA aktuell
Zeige MMA Monat
Zeige MMA alles
Zeige --A aktuell
Zeige --A Monat
Zeige --A alles
Keine MMA-Anzeige
MMA:
Average (ber die Originaldaten)
MMA-Basis: 20.05.2022 - 20.05.2022
Quicknavigation für Darstellung... ?
Tage:      1T, 2T, 3T, 5T -1T -2T -3T -5T +1T +2T +3T +5T
Wochen: 1W, 2W, 3W -1W -2W -3W +1W +2W +3W
Monate: 1M, 3M, 6M -1M -3M -6M +1M +3M +6M
Jahre:    1J, 3J, 5J, 10J -1J -3J -5J -10J +1J +3J +5J +10J
Nutze für die Darstellung ... ?
Originaldaten oder Mittelwerte auf ...
Stundenbasis Tagesbasis Wochenbasis
Monatsbasis Jahresbasis      Datenbasis: Original-Daten
Darstellen als:
Statistik (Auto) Statistik J:M      Darstellung:

Der gewünschte Datumsbereich war nicht gültig/verfügbar und wurde korrigiert....
Das angegebene Enddatum (15.06.2022 23:59:59) liegt in der Zukunft.
Das angegebene Startdatum (15.06.2022 00:00:00) liegt in der Zukunft.


Zur Graphik,    zurück zur Übersicht aller Sensoren.
 
Tabellarische Datenbersicht: ?
 
Sensor: Nr:Datum:Temp:Abs-Feuchte:Windchill:Wind:
Aussen-T/F 1 20-05-2022 02:00:00 15.8 C 12.92 g/m*3 15.8 C 0 km/h
2 20-05-2022 02:05:00 15.7 C 12.71 g/m*3 15.7 C 0 km/h
3 20-05-2022 02:10:00 15.6 C 12.63 g/m*3 15.6 C 0 km/h
4 20-05-2022 02:15:00 15.5 C 12.69 g/m*3 15.5 C 0 km/h
5 20-05-2022 02:20:00 15.4 C 12.61 g/m*3 15.4 C 0 km/h
6 20-05-2022 02:25:00 15.4 C 12.61 g/m*3 15.4 C 0 km/h
7 20-05-2022 02:30:00 15.4 C 12.61 g/m*3 15.4 C 0 km/h
8 20-05-2022 02:35:00 15.4 C 12.61 g/m*3 15.4 C 0 km/h
9 20-05-2022 02:40:00 15.4 C 12.61 g/m*3 15.4 C 0 km/h
10 20-05-2022 02:45:00 15.4 C 12.61 g/m*3 15.4 C 0 km/h
11 20-05-2022 02:50:00 15.4 C 12.61 g/m*3 15.4 C 0 km/h
12 20-05-2022 02:55:00 15.4 C 12.61 g/m*3 15.4 C 0 km/h
13 20-05-2022 03:00:00 15.4 C 12.61 g/m*3 15.4 C 0 km/h
14 20-05-2022 03:05:00 15.4 C 12.61 g/m*3 15.4 C 0 km/h
15 20-05-2022 03:10:00 15.4 C 12.61 g/m*3 15.4 C 0 km/h
16 20-05-2022 03:15:00 15.4 C 12.61 g/m*3 15.4 C 0 km/h
17 20-05-2022 03:20:00 15.4 C 12.61 g/m*3 15.4 C 0 km/h
18 20-05-2022 03:25:00 15.4 C 12.61 g/m*3 15.4 C 0 km/h
19 20-05-2022 03:30:00 15.5 C 12.69 g/m*3 15.5 C 0 km/h
20 20-05-2022 03:35:00 15.5 C 12.69 g/m*3 15.5 C 0 km/h
21 20-05-2022 03:40:00 15.5 C 12.69 g/m*3 15.5 C 0 km/h
22 20-05-2022 03:45:00 15.6 C 12.77 g/m*3 15.6 C 0 km/h
23 20-05-2022 03:50:00 15.5 C 12.69 g/m*3 15.5 C 0 km/h
24 20-05-2022 03:55:00 15.5 C 12.69 g/m*3 15.5 C 0 km/h
25 20-05-2022 04:25:00 16 C 13.08 g/m*3 16 C 0 km/h
Sensor: Nr:Datum:Temp:Abs-Feuchte:Windchill:Wind:
Aussen-T/F 26 20-05-2022 04:30:00 16.1 C 13.16 g/m*3 16.1 C 0 km/h
27 20-05-2022 04:35:00 16.1 C 13.16 g/m*3 16.1 C 0 km/h
28 20-05-2022 04:40:00 16.2 C 13.24 g/m*3 16.2 C 0 km/h
29 20-05-2022 04:45:00 16.2 C 13.38 g/m*3 16.2 C 0 km/h
30 20-05-2022 04:50:00 16.2 C 13.38 g/m*3 16.2 C 0 km/h
31 20-05-2022 04:55:00 16.3 C 13.46 g/m*3 16.3 C 0 km/h
32 20-05-2022 05:00:00 16.3 C 13.46 g/m*3 16.3 C 0 km/h
33 20-05-2022 05:05:00 16.3 C 13.46 g/m*3 16.3 C 0 km/h
34 20-05-2022 05:10:00 16.4 C 13.54 g/m*3 16.4 C 3.2 km/h
35 20-05-2022 05:15:00 16.4 C 13.54 g/m*3 16.4 C 9.7 km/h
36 20-05-2022 05:20:00 16.4 C 13.4 g/m*3 16.4 C 11.3 km/h
37 20-05-2022 05:25:00 16.4 C 13.4 g/m*3 16.4 C 8.1 km/h
38 20-05-2022 05:30:00 16.4 C 13.54 g/m*3 16.4 C 6.4 km/h
39 20-05-2022 05:35:00 16.4 C 13.4 g/m*3 16.4 C 0 km/h
40 20-05-2022 05:40:00 16.4 C 13.4 g/m*3 16.4 C 0 km/h
41 20-05-2022 05:45:00 16.4 C 13.4 g/m*3 16.4 C 0 km/h
42 20-05-2022 05:50:00 16.4 C 13.4 g/m*3 16.4 C 0 km/h
43 20-05-2022 05:55:00 16.4 C 13.4 g/m*3 16.4 C 0 km/h
44 20-05-2022 06:00:00 16.4 C 13.4 g/m*3 16.4 C 0 km/h
45 20-05-2022 06:05:00 16.4 C 13.4 g/m*3 16.4 C 0 km/h
46 20-05-2022 06:10:00 16.3 C 13.46 g/m*3 16.3 C 0 km/h
47 20-05-2022 06:15:00 16.3 C 13.46 g/m*3 16.3 C 0 km/h
48 20-05-2022 06:20:00 16.4 C 13.4 g/m*3 16.4 C 0 km/h
49 20-05-2022 06:25:00 16.4 C 13.4 g/m*3 16.4 C 0 km/h
50 20-05-2022 06:30:00 16.4 C 13.4 g/m*3 16.4 C 0 km/h
Sensor: Nr:Datum:Temp:Abs-Feuchte:Windchill:Wind:
Aussen-T/F 51 20-05-2022 06:35:00 16.4 C 13.54 g/m*3 16.4 C 0 km/h
52 20-05-2022 06:40:00 16.4 C 13.54 g/m*3 16.4 C 0 km/h
53 20-05-2022 06:45:00 16.5 C 13.62 g/m*3 16.5 C 0 km/h
54 20-05-2022 06:50:00 16.5 C 13.62 g/m*3 16.5 C 0 km/h
55 20-05-2022 06:55:00 16.6 C 13.7 g/m*3 16.6 C 0 km/h
56 20-05-2022 07:00:00 16.5 C 13.62 g/m*3 16.5 C 0 km/h
57 20-05-2022 07:05:00 16.6 C 13.7 g/m*3 16.6 C 8.1 km/h
58 20-05-2022 07:10:00 16.6 C 13.7 g/m*3 16.6 C 8.1 km/h
59 20-05-2022 07:15:00 16.7 C 13.79 g/m*3 16.7 C 4.8 km/h
60 20-05-2022 07:20:00 16.7 C 13.79 g/m*3 16.7 C 1.6 km/h
61 20-05-2022 07:25:00 16.7 C 13.79 g/m*3 16.7 C 0 km/h
62 20-05-2022 07:30:00 16.7 C 13.79 g/m*3 16.7 C 0 km/h
63 20-05-2022 07:35:00 16.8 C 13.87 g/m*3 16.8 C 1.6 km/h
64 20-05-2022 07:40:00 16.9 C 13.95 g/m*3 16.9 C 1.6 km/h
65 20-05-2022 07:45:00 16.9 C 13.95 g/m*3 16.9 C 0 km/h
66 20-05-2022 07:50:00 16.9 C 13.95 g/m*3 16.9 C 0 km/h
67 20-05-2022 07:55:00 17 C 14.04 g/m*3 17 C 0 km/h
68 20-05-2022 08:00:00 17.1 C 14.12 g/m*3 17.1 C 0 km/h
69 20-05-2022 08:05:00 17.2 C 14.2 g/m*3 17.2 C 0 km/h
70 20-05-2022 08:10:00 17.2 C 14.2 g/m*3 17.2 C 0 km/h
71 20-05-2022 08:15:00 17.1 C 14.12 g/m*3 17.1 C 1.6 km/h
72 20-05-2022 08:20:00 17.1 C 14.12 g/m*3 17.1 C 0 km/h
73 20-05-2022 08:25:00 17.1 C 14.12 g/m*3 17.1 C 0 km/h
74 20-05-2022 08:30:00 17.1 C 14.12 g/m*3 17.1 C 1.6 km/h
75 20-05-2022 08:35:00 17.1 C 14.12 g/m*3 17.1 C 0 km/h
Sensor: Nr:Datum:Temp:Abs-Feuchte:Windchill:Wind:
Aussen-T/F 76 20-05-2022 08:40:00 17.2 C 14.2 g/m*3 17.2 C 0 km/h
77 20-05-2022 08:45:00 17.2 C 14.2 g/m*3 17.2 C 0 km/h
78 20-05-2022 08:50:00 17.3 C 14.29 g/m*3 17.3 C 0 km/h
79 20-05-2022 08:55:00 17.4 C 14.38 g/m*3 17.4 C 0 km/h
80 20-05-2022 09:00:00 17.6 C 14.55 g/m*3 17.6 C 0 km/h
81 20-05-2022 09:05:00 17.7 C 14.64 g/m*3 17.7 C 0 km/h
82 20-05-2022 09:10:00 17.8 C 14.72 g/m*3 17.8 C 1.6 km/h
83 20-05-2022 09:15:00 17.9 C 14.81 g/m*3 17.9 C 0 km/h
84 20-05-2022 09:20:00 18.1 C 14.99 g/m*3 18.1 C 0 km/h
85 20-05-2022 09:25:00 18.1 C 14.99 g/m*3 18.1 C 0 km/h
86 20-05-2022 09:30:00 18.2 C 15.08 g/m*3 18.2 C 0 km/h
87 20-05-2022 09:35:00 18.2 C 15.08 g/m*3 18.2 C 0 km/h
88 20-05-2022 09:40:00 18.2 C 15.08 g/m*3 18.2 C 0 km/h
89 20-05-2022 09:45:00 18.3 C 15.17 g/m*3 18.3 C 0 km/h
90 20-05-2022 09:50:00 18.4 C 15.26 g/m*3 18.4 C 1.6 km/h
91 20-05-2022 09:55:00 18.4 C 15.26 g/m*3 18.4 C 4.8 km/h
92 20-05-2022 10:00:00 18.5 C 15.35 g/m*3 18.5 C 0 km/h
93 20-05-2022 10:05:00 18.7 C 15.53 g/m*3 18.7 C 1.6 km/h
94 20-05-2022 10:10:00 18.7 C 15.53 g/m*3 18.7 C 3.2 km/h
95 20-05-2022 10:15:00 18.8 C 15.62 g/m*3 18.8 C 1.6 km/h
96 20-05-2022 10:20:00 18.9 C 15.71 g/m*3 18.9 C 1.6 km/h
97 20-05-2022 10:25:00 19.1 C 15.9 g/m*3 19.1 C 0 km/h
98 20-05-2022 10:30:00 19.3 C 16.09 g/m*3 19.3 C 4.8 km/h
99 20-05-2022 10:35:00 19.4 C 16.18 g/m*3 19.4 C 1.6 km/h
100 20-05-2022 10:40:00 19.6 C 16.38 g/m*3 19.6 C 0 km/h
Sensor: Nr:Datum:Temp:Abs-Feuchte:Windchill:Wind:
Aussen-T/F 101 20-05-2022 10:45:00 19.6 C 16.21 g/m*3 19.6 C 9.7 km/h
102 20-05-2022 10:50:00 19.7 C 16.3 g/m*3 19.7 C 8.1 km/h
103 20-05-2022 10:55:00 19.9 C 16.49 g/m*3 19.9 C 6.4 km/h
104 20-05-2022 11:00:00 19.9 C 16.32 g/m*3 19.9 C 1.6 km/h
105 20-05-2022 11:05:00 20.1 C 16.34 g/m*3 20.1 C 0 km/h
106 20-05-2022 11:10:00 20.3 C 16.53 g/m*3 20.3 C 6.4 km/h
107 20-05-2022 11:15:00 20.6 C 16.64 g/m*3 20.6 C 8.1 km/h
108 20-05-2022 11:20:00 20.8 C 16.66 g/m*3 20.8 C 4.8 km/h
109 20-05-2022 11:25:00 21.1 C 16.77 g/m*3 21.1 C 3.2 km/h
110 20-05-2022 11:30:00 21.3 C 17.15 g/m*3 21.3 C 3.2 km/h
111 20-05-2022 11:35:00 21.4 C 17.25 g/m*3 21.4 C 0 km/h
112 20-05-2022 11:40:00 21.7 C 17.17 g/m*3 21.7 C 3.2 km/h
113 20-05-2022 11:45:00 22 C 17.66 g/m*3 22 C 0 km/h
114 20-05-2022 11:50:00 22.2 C 17.08 g/m*3 22.2 C 6.4 km/h
115 20-05-2022 11:55:00 22.5 C 17.58 g/m*3 22.5 C 6.4 km/h
116 20-05-2022 12:00:00 22.5 C 17.18 g/m*3 22.5 C 6.4 km/h
117 20-05-2022 12:05:00 22.7 C 17.17 g/m*3 22.7 C 4.8 km/h
118 20-05-2022 12:10:00 22.8 C 17.07 g/m*3 22.8 C 1.6 km/h
119 20-05-2022 12:15:00 23.1 C 17.16 g/m*3 23.1 C 4.8 km/h
120 20-05-2022 12:20:00 23.2 C 17.05 g/m*3 23.2 C 6.4 km/h
121 20-05-2022 12:25:00 23.4 C 17.45 g/m*3 23.4 C 1.6 km/h
122 20-05-2022 12:30:00 23.5 C 17.76 g/m*3 23.5 C 1.6 km/h
123 20-05-2022 12:35:00 23.7 C 18.18 g/m*3 23.7 C 1.6 km/h
124 20-05-2022 12:40:00 23.7 C 17.33 g/m*3 23.7 C 4.8 km/h
125 20-05-2022 12:45:00 23.8 C 17.85 g/m*3 23.8 C 6.4 km/h
Sensor: Nr:Datum:Temp:Abs-Feuchte:Windchill:Wind:
Aussen-T/F 126 20-05-2022 12:50:00 23.8 C 17.64 g/m*3 23.8 C 4.8 km/h
127 20-05-2022 12:55:00 23.7 C 17.33 g/m*3 23.7 C 4.8 km/h
128 20-05-2022 13:00:00 23.7 C 17.33 g/m*3 23.7 C 6.4 km/h
129 20-05-2022 13:05:00 23.7 C 17.54 g/m*3 23.7 C 4.8 km/h
130 20-05-2022 13:10:00 23.8 C 17.42 g/m*3 23.8 C 3.2 km/h
131 20-05-2022 13:15:00 23.9 C 18.17 g/m*3 23.9 C 0 km/h
132 20-05-2022 13:20:00 23.9 C 18.6 g/m*3 23.9 C 0 km/h
133 20-05-2022 13:25:00 23.9 C 17.74 g/m*3 23.9 C 0 km/h
134 20-05-2022 13:30:00 24 C 17.84 g/m*3 24 C 0 km/h
135 20-05-2022 13:35:00 24 C 17.62 g/m*3 24 C 3.2 km/h
136 20-05-2022 13:40:00 24.1 C 18.38 g/m*3 24.1 C 1.6 km/h
137 20-05-2022 13:45:00 24 C 18.49 g/m*3 24 C 0 km/h
138 20-05-2022 13:50:00 23.9 C 18.6 g/m*3 23.9 C 1.6 km/h
139 20-05-2022 13:55:00 23.8 C 18.71 g/m*3 23.8 C 1.6 km/h
140 20-05-2022 14:00:00 23.7 C 18.61 g/m*3 23.7 C 3.2 km/h
141 20-05-2022 14:05:00 23.5 C 18.4 g/m*3 23.5 C 3.2 km/h
142 20-05-2022 14:10:00 23.3 C 17.77 g/m*3 23.3 C 11.3 km/h
143 20-05-2022 14:15:00 23.4 C 18.5 g/m*3 23.4 C 1.6 km/h
144 20-05-2022 14:20:00 23.7 C 19.04 g/m*3 23.7 C 1.6 km/h
145 20-05-2022 14:25:00 23.8 C 18.07 g/m*3 23.8 C 3.2 km/h
146 20-05-2022 14:30:00 24 C 18.71 g/m*3 24 C 4.8 km/h
147 20-05-2022 14:35:00 23.9 C 18.6 g/m*3 23.9 C 3.2 km/h
148 20-05-2022 14:40:00 23.9 C 19.04 g/m*3 23.9 C 3.2 km/h
149 20-05-2022 14:45:00 23.9 C 19.04 g/m*3 23.9 C 3.2 km/h
150 20-05-2022 14:50:00 23.9 C 19.25 g/m*3 23.9 C 1.6 km/h
Sensor: Nr:Datum:Temp:Abs-Feuchte:Windchill:Wind:
Aussen-T/F 151 20-05-2022 14:55:00 24 C 19.36 g/m*3 24 C 1.6 km/h
152 20-05-2022 15:00:00 24.1 C 19.47 g/m*3 24.1 C 0 km/h
153 20-05-2022 15:05:00 24.2 C 19.58 g/m*3 24.2 C 0 km/h
154 20-05-2022 15:10:00 24.2 C 19.36 g/m*3 24.2 C 1.6 km/h
155 20-05-2022 15:15:00 24.4 C 19.58 g/m*3 24.4 C 0 km/h
156 20-05-2022 15:20:00 24.6 C 19.81 g/m*3 24.6 C 1.6 km/h
157 20-05-2022 15:25:00 24.6 C 18.68 g/m*3 24.6 C 4.8 km/h
158 20-05-2022 15:30:00 24.8 C 19.8 g/m*3 24.8 C 3.2 km/h
159 20-05-2022 15:35:00 25 C 20.03 g/m*3 25 C 1.6 km/h
160 20-05-2022 15:40:00 25.1 C 19.21 g/m*3 25.1 C 6.4 km/h
161 20-05-2022 15:45:00 25.3 C 18.96 g/m*3 25.3 C 8.1 km/h
162 20-05-2022 15:50:00 25.7 C 19.39 g/m*3 25.7 C 1.6 km/h
163 20-05-2022 15:55:00 26.1 C 19.34 g/m*3 26.1 C 4.8 km/h
164 20-05-2022 16:00:00 26.3 C 18.81 g/m*3 26.3 C 12.9 km/h
165 20-05-2022 16:05:00 26.6 C 19.13 g/m*3 26.6 C 11.3 km/h
166 20-05-2022 16:10:00 26.7 C 18.22 g/m*3 26.7 C 9.7 km/h
167 20-05-2022 16:15:00 26.8 C 18.58 g/m*3 26.8 C 6.4 km/h
168 20-05-2022 16:20:00 26.7 C 17.97 g/m*3 26.7 C 11.3 km/h
169 20-05-2022 16:25:00 26.7 C 17.97 g/m*3 26.7 C 9.7 km/h
170 20-05-2022 16:30:00 26.7 C 18.48 g/m*3 26.7 C 6.4 km/h
171 20-05-2022 16:35:00 26.7 C 17.97 g/m*3 26.7 C 4.8 km/h
172 20-05-2022 16:40:00 26.6 C 18.12 g/m*3 26.6 C 4.8 km/h
173 20-05-2022 16:45:00 26.4 C 19.17 g/m*3 26.4 C 1.6 km/h
174 20-05-2022 16:50:00 26.2 C 18.96 g/m*3 26.2 C 1.6 km/h
175 20-05-2022 16:55:00 25.9 C 19.13 g/m*3 25.9 C 3.2 km/h
Sensor: Nr:Datum:Temp:Abs-Feuchte:Windchill:Wind:
Aussen-T/F 176 20-05-2022 17:00:00 25.5 C 18.94 g/m*3 25.5 C 1.6 km/h
177 20-05-2022 17:05:00 25.1 C 18.52 g/m*3 25.1 C 0 km/h
178 20-05-2022 17:10:00 24.7 C 18.33 g/m*3 24.7 C 1.6 km/h
179 20-05-2022 17:15:00 24.4 C 18.25 g/m*3 24.4 C 1.6 km/h
180 20-05-2022 17:20:00 24.1 C 18.16 g/m*3 24.1 C 6.4 km/h
181 20-05-2022 17:25:00 23.6 C 17.87 g/m*3 23.6 C 27.4 km/h
182 20-05-2022 17:30:00 22.4 C 15.89 g/m*3 22.4 C 27.4 km/h
183 20-05-2022 17:35:00 21.6 C 15.74 g/m*3 21.6 C 19.3 km/h
184 20-05-2022 17:40:00 20.8 C 15.21 g/m*3 20.8 C 9.7 km/h
185 20-05-2022 17:45:00 20.4 C 15.39 g/m*3 20.4 C 11.3 km/h
186 20-05-2022 17:50:00 20 C 15.21 g/m*3 20 C 6.4 km/h
187 20-05-2022 17:55:00 19.8 C 15.2 g/m*3 19.8 C 1.6 km/h
188 20-05-2022 18:00:00 19.7 C 15.45 g/m*3 19.7 C 1.6 km/h
189 20-05-2022 18:05:00 20.2 C 16.26 g/m*3 20.2 C 1.6 km/h
190 20-05-2022 18:10:00 20.6 C 16.47 g/m*3 20.6 C 1.6 km/h
191 20-05-2022 18:15:00 20.8 C 16.3 g/m*3 20.8 C 1.6 km/h
192 20-05-2022 18:20:00 20.7 C 15.84 g/m*3 20.7 C 3.2 km/h
193 20-05-2022 18:25:00 20.7 C 16.02 g/m*3 20.7 C 0 km/h
194 20-05-2022 18:30:00 20.6 C 15.93 g/m*3 20.6 C 0 km/h
195 20-05-2022 18:35:00 20.4 C 15.74 g/m*3 20.4 C 0 km/h

Legende:
   Min
   Max


Maximal/Minimal-Werte vom 20.05.2022 - 20.05.2022

Sensor Min Max Avg
Temp
(Aussen-T/F)
15.4 °C
20-05-2022  02:20:00
26.8 °C
20-05-2022  16:15:00
19.95 °C
Abs-Feuchte
(Aussen-T/F)
12.61 g/m*3
20-05-2022  02:20:00
20.03 g/m*3
20-05-2022  15:35:00
15.65 g/m*3
Windchill
(Aussen-T/F)
15.4 C
20-05-2022  02:20:00
26.8 C
20-05-2022  16:15:00
19.85 C

Die Daten stammen von einer Davis Vantage Pro 2 Wetter-Station und werden unter Linux mit der Software wview2wettercgi und aufbereitet. Alle Angaben erfolgen ohne Gewähr für ihre Vollständigkeit oder Richtigkeit.
Kontakt: Rainer Krienke krienke@uni-koblenz.de . Meine Webseiten an der Uni Koblenz oder privat.
Version: $Revision: 0.78 $